createdAt,value
2022-08-16T00:01:56.154Z,23.66
2022-08-16T00:04:28.111Z,23.75
2022-08-16T00:06:55.807Z,23.75
2022-08-16T00:09:23.445Z,23.56
2022-08-16T00:11:52.759Z,23.67
2022-08-16T00:14:29.122Z,23.75
2022-08-16T00:16:58.582Z,23.74
2022-08-16T00:19:41.331Z,23.90
2022-08-16T00:22:13.570Z,23.78
2022-08-16T00:24:44.893Z,23.62
2022-08-16T00:27:14.596Z,23.63
2022-08-16T00:29:42.429Z,23.55
2022-08-16T00:32:10.900Z,23.40
2022-08-16T00:34:45.131Z,23.42
2022-08-16T00:37:24.609Z,23.57
2022-08-16T00:39:57.115Z,23.68
2022-08-16T00:42:31.662Z,23.94
2022-08-16T00:45:58.209Z,23.33
2022-08-16T00:48:30.947Z,23.27
2022-08-16T00:51:02.961Z,23.04
2022-08-16T00:53:32.676Z,23.01
2022-08-16T00:56:05.217Z,23.10
2022-08-16T00:58:35.633Z,23.32
2022-08-16T01:01:08.276Z,23.41
2022-08-16T01:03:41.585Z,23.16
2022-08-16T01:06:39.698Z,23.33
2022-08-16T01:09:00.049Z,23.26
2022-08-16T01:11:29.392Z,23.33
2022-08-16T01:14:03.366Z,23.64
2022-08-16T01:16:30.994Z,23.66
2022-08-16T01:19:07.648Z,23.53
2022-08-16T01:21:52.699Z,23.72
2022-08-16T01:24:51.806Z,23.69
2022-08-16T01:27:39.473Z,23.66
2022-08-16T01:30:19.220Z,23.67
2022-08-16T01:33:01.665Z,23.64
2022-08-16T01:35:43.356Z,23.65
2022-08-16T01:38:28.427Z,23.79
2022-08-16T01:41:08.064Z,23.71
2022-08-16T01:43:38.994Z,23.71
2022-08-16T01:46:39.696Z,23.56
2022-08-16T01:50:40.703Z,23.61
2022-08-16T01:52:29.635Z,23.33
2022-08-16T01:55:17.415Z,23.25
2022-08-16T01:57:53.739Z,23.51
2022-08-16T02:00:29.488Z,23.47
2022-08-16T02:02:59.507Z,23.22
2022-08-16T02:05:30.598Z,22.98
2022-08-16T02:08:00.518Z,22.95
2022-08-16T02:10:28.805Z,23.01
2022-08-16T02:13:00.708Z,23.32
2022-08-16T02:15:35.604Z,23.47
2022-08-16T02:18:12.438Z,23.42
2022-08-16T02:20:42.649Z,23.54
2022-08-16T02:23:13.863Z,23.28
2022-08-16T02:25:51.922Z,23.35
2022-08-16T02:28:23.533Z,23.41
2022-08-16T02:30:52.804Z,23.41
2022-08-16T02:33:44.050Z,23.24
2022-08-16T02:36:47.177Z,23.18
2022-08-16T02:39:07.714Z,23.24
2022-08-16T02:44:06.138Z,23.56
2022-08-16T02:46:33.911Z,23.44
2022-08-16T02:49:04.122Z,23.54
2022-08-16T02:51:35.852Z,23.65
2022-08-16T02:54:04.684Z,23.64
2022-08-16T02:56:33.095Z,23.39
2022-08-16T02:59:00.675Z,23.47
2022-08-16T03:01:36.733Z,23.32
2022-08-16T03:04:29.170Z,23.46
2022-08-16T03:07:01.753Z,23.42
2022-08-16T03:09:41.468Z,23.56
2022-08-16T03:12:16.680Z,23.66
2022-08-16T03:14:47.049Z,23.54
2022-08-16T03:17:16.358Z,23.34
2022-08-16T03:19:47.900Z,23.34
2022-08-16T03:22:29.009Z,23.21
2022-08-16T03:25:07.749Z,23.28
2022-08-16T03:27:39.005Z,23.04
2022-08-16T03:30:19.094Z,23.27
2022-08-16T03:32:52.207Z,23.37
2022-08-16T03:35:32.687Z,23.17
2022-08-16T03:38:32.864Z,23.12
2022-08-16T03:40:57.425Z,23.29
2022-08-16T03:43:50.659Z,23.38
2022-08-16T03:46:47.825Z,23.40
2022-08-16T03:49:10.761Z,23.07
2022-08-16T03:51:41.123Z,23.15
2022-08-16T03:54:12.730Z,23.03
2022-08-16T03:56:57.168Z,23.07
2022-08-16T03:59:30.288Z,22.94
2022-08-16T04:02:22.041Z,22.82
2022-08-16T04:04:51.250Z,22.61
2022-08-16T04:07:18.530Z,22.67
2022-08-16T04:09:47.866Z,22.56
2022-08-16T04:12:54.823Z,22.91
2022-08-16T04:15:07.930Z,22.84
2022-08-16T04:17:38.787Z,22.52
2022-08-16T04:20:23.618Z,22.92
2022-08-16T04:22:57.047Z,22.72
2022-08-16T04:25:26.485Z,22.68
2022-08-16T04:27:55.936Z,22.68
2022-08-16T04:30:31.827Z,22.68
2022-08-16T04:33:02.116Z,22.78
2022-08-16T04:35:34.611Z,22.66
2022-08-16T04:38:11.121Z,22.65
2022-08-16T04:40:50.055Z,22.66
2022-08-16T04:43:18.735Z,22.84
2022-08-16T04:45:47.344Z,22.77
2022-08-16T04:48:33.850Z,22.71
2022-08-16T04:51:11.830Z,22.81
2022-08-16T04:53:45.348Z,22.73
2022-08-16T04:56:16.543Z,22.83
2022-08-16T04:58:46.825Z,22.94
2022-08-16T05:01:18.588Z,22.71
2022-08-16T05:03:59.606Z,22.87
2022-08-16T05:06:42.420Z,22.37
2022-08-16T05:09:19.291Z,22.70
2022-08-16T05:11:51.375Z,22.79
2022-08-16T05:14:20.298Z,22.55
2022-08-16T05:17:06.492Z,22.70
2022-08-16T05:19:36.031Z,22.70
2022-08-16T05:22:17.482Z,22.87
2022-08-16T05:24:46.976Z,22.62
2022-08-16T05:27:14.241Z,22.77
2022-08-16T05:30:01.059Z,23.04
2022-08-16T05:32:32.257Z,23.04
2022-08-16T05:35:05.010Z,22.90
2022-08-16T05:37:39.713Z,22.93
2022-08-16T05:40:10.354Z,23.22
2022-08-16T05:42:47.860Z,23.01
2022-08-16T05:45:22.107Z,22.87
2022-08-16T05:47:59.589Z,22.84
2022-08-16T05:50:35.020Z,22.98
2022-08-16T05:53:04.104Z,23.15
2022-08-16T05:55:40.740Z,23.09
2022-08-16T05:58:08.566Z,23.06
2022-08-16T06:00:37.114Z,23.06
2022-08-16T06:03:04.430Z,23.05
2022-08-16T06:06:08.523Z,23.02
2022-08-16T06:08:41.945Z,23.33
2022-08-16T06:11:13.339Z,23.34
2022-08-16T06:13:43.619Z,23.08
2022-08-16T06:16:18.116Z,23.18
2022-08-16T06:18:46.347Z,23.05
2022-08-16T06:21:14.501Z,23.07
2022-08-16T06:23:54.033Z,23.37
2022-08-16T06:26:22.700Z,23.49
2022-08-16T06:28:52.622Z,23.24
2022-08-16T06:31:26.303Z,23.72
2022-08-16T06:33:55.412Z,23.78
2022-08-16T06:36:24.104Z,23.85
2022-08-16T06:39:20.579Z,23.93
2022-08-16T06:41:58.820Z,24.03
2022-08-16T06:44:44.675Z,24.11
2022-08-16T06:47:52.517Z,23.98
2022-08-16T06:50:22.062Z,23.92
2022-08-16T06:53:00.277Z,24.09
2022-08-16T06:55:40.329Z,24.03
2022-08-16T06:58:22.725Z,24.32
2022-08-16T07:01:09.626Z,24.31
2022-08-16T07:03:55.542Z,24.40
2022-08-16T07:06:28.131Z,24.24
2022-08-16T07:09:00.226Z,24.11
2022-08-16T07:11:47.462Z,24.27
2022-08-16T07:14:24.789Z,24.36
2022-08-16T07:16:54.662Z,24.29
2022-08-16T07:19:22.219Z,24.13
2022-08-16T07:22:38.316Z,24.38
2022-08-16T07:24:56.970Z,24.12
2022-08-16T07:27:24.383Z,24.10
2022-08-16T07:29:55.599Z,24.17
2022-08-16T07:32:29.596Z,23.94
2022-08-16T07:34:58.974Z,24.19
2022-08-16T07:37:27.370Z,24.57
2022-08-16T07:40:11.192Z,24.25
2022-08-16T07:42:42.786Z,24.10
2022-08-16T07:45:10.666Z,24.35
2022-08-16T07:47:42.893Z,24.28
2022-08-16T07:50:57.263Z,24.23
2022-08-16T07:53:02.096Z,24.32
2022-08-16T07:55:45.858Z,24.44
2022-08-16T07:58:34.925Z,24.35
2022-08-16T08:01:10.911Z,24.43
2022-08-16T08:03:49.089Z,24.43
2022-08-16T08:06:24.926Z,24.27
2022-08-16T08:08:57.613Z,24.52
2022-08-16T08:11:28.563Z,24.53
2022-08-16T08:14:03.857Z,24.80
2022-08-16T08:16:38.387Z,24.91
2022-08-16T08:19:18.546Z,24.95
2022-08-16T08:22:01.533Z,24.92
2022-08-16T08:24:48.829Z,24.85
2022-08-16T08:27:23.001Z,24.96
2022-08-16T08:30:09.236Z,24.99
2022-08-16T08:33:02.257Z,25.17
2022-08-16T08:35:34.839Z,25.32
2022-08-16T08:38:03.084Z,25.44
2022-08-16T08:40:33.829Z,24.93
2022-08-16T08:43:11.455Z,25.29
2022-08-16T08:45:52.695Z,25.09
2022-08-16T08:48:33.648Z,25.41
2022-08-16T08:51:08.941Z,25.41
2022-08-16T08:53:43.684Z,25.55
2022-08-16T08:56:23.175Z,25.58
2022-08-16T08:59:00.021Z,25.72
2022-08-16T09:01:43.199Z,26.06
2022-08-16T09:04:27.786Z,26.06
2022-08-16T09:06:56.534Z,25.82
2022-08-16T09:09:33.709Z,25.34
2022-08-16T09:12:06.777Z,25.68
2022-08-16T09:14:57.175Z,25.72
2022-08-16T09:17:49.124Z,26.08
2022-08-16T09:20:16.775Z,26.10
2022-08-16T09:22:44.342Z,26.24
2022-08-16T09:25:26.322Z,26.33
2022-08-16T09:28:09.377Z,26.57
2022-08-16T09:30:44.023Z,26.70
2022-08-16T09:33:13.667Z,26.74
2022-08-16T09:35:42.750Z,26.85
2022-08-16T09:38:12.875Z,26.76
2022-08-16T09:40:59.098Z,27.12
2022-08-16T09:43:58.037Z,26.82
2022-08-16T09:46:45.214Z,27.06
2022-08-16T09:49:03.832Z,27.26
2022-08-16T09:51:36.794Z,27.15
2022-08-16T09:54:06.068Z,27.24
2022-08-16T09:56:39.498Z,27.23
2022-08-16T09:59:23.771Z,27.27
2022-08-16T10:01:53.618Z,27.35
2022-08-16T10:04:29.359Z,27.37
2022-08-16T10:09:44.834Z,27.57
2022-08-16T10:12:31.618Z,27.57
2022-08-16T10:15:00.828Z,27.72
2022-08-16T10:17:29.442Z,27.42
2022-08-16T10:19:56.744Z,27.37
2022-08-16T10:22:24.262Z,27.19
2022-08-16T10:24:55.793Z,27.34
2022-08-16T10:27:46.977Z,27.44
2022-08-16T10:30:25.782Z,27.51
2022-08-16T10:32:56.079Z,27.42
2022-08-16T10:35:23.930Z,27.37
2022-08-16T10:38:00.284Z,27.32
2022-08-16T10:40:29.569Z,27.35
2022-08-16T10:43:00.075Z,26.94
2022-08-16T10:45:28.187Z,26.95
2022-08-16T10:48:03.001Z,27.04
2022-08-16T10:50:32.617Z,27.17
2022-08-16T10:53:00.650Z,27.38
2022-08-16T10:55:41.080Z,27.35
2022-08-16T10:58:16.941Z,27.28
2022-08-16T11:00:46.135Z,27.66
2022-08-16T11:06:06.312Z,27.80
2022-08-16T11:08:38.801Z,27.57
2022-08-16T11:11:11.672Z,27.49
2022-08-16T11:14:11.509Z,27.85
2022-08-16T11:19:22.589Z,28.14
2022-08-16T11:24:42.903Z,27.67
2022-08-16T11:27:18.685Z,27.71
2022-08-16T11:29:55.739Z,27.52
2022-08-16T11:32:31.719Z,27.66
2022-08-16T11:35:14.975Z,27.70
2022-08-16T11:38:23.261Z,27.39
2022-08-16T11:40:58.737Z,27.79
2022-08-16T11:43:35.942Z,28.08
2022-08-16T11:46:42.981Z,27.81
2022-08-16T11:48:58.193Z,27.68
2022-08-16T11:51:25.610Z,27.67
2022-08-16T11:53:53.134Z,27.73
2022-08-16T11:56:39.452Z,27.78
2022-08-16T11:59:08.815Z,27.66
2022-08-16T12:01:44.473Z,27.97
2022-08-16T12:04:23.393Z,28.05
2022-08-16T12:06:53.539Z,28.46
2022-08-16T12:09:23.963Z,28.33
2022-08-16T12:11:53.017Z,28.41
2022-08-16T12:14:23.094Z,28.19
2022-08-16T12:16:55.672Z,28.07
2022-08-16T12:19:33.875Z,27.94
2022-08-16T12:22:05.776Z,28.06
2022-08-16T12:24:51.057Z,28.06
2022-08-16T12:27:24.655Z,28.19
2022-08-16T12:29:52.987Z,28.20
2022-08-16T12:32:36.003Z,28.28
2022-08-16T12:35:12.062Z,28.46
2022-08-16T12:37:41.398Z,28.39
2022-08-16T12:40:24.379Z,28.00
2022-08-16T12:42:58.960Z,28.08
2022-08-16T12:45:31.963Z,28.08
2022-08-16T12:48:35.308Z,28.15
2022-08-16T12:51:13.691Z,28.32
2022-08-16T12:53:52.156Z,28.35
2022-08-16T12:56:21.107Z,28.23
2022-08-16T12:58:51.532Z,28.45
2022-08-16T13:01:26.994Z,28.68
2022-08-16T13:04:11.488Z,28.55
2022-08-16T13:06:44.329Z,28.46
2022-08-16T13:09:23.543Z,28.57
2022-08-16T13:12:20.963Z,28.48
2022-08-16T13:14:50.124Z,28.40
2022-08-16T13:17:22.011Z,28.64
2022-08-16T13:20:09.210Z,28.53
2022-08-16T13:22:42.021Z,28.55
2022-08-16T13:25:12.978Z,28.80
2022-08-16T13:28:02.461Z,28.55
2022-08-16T13:30:35.776Z,28.27
2022-08-16T13:33:10.839Z,28.34
2022-08-16T13:35:45.046Z,28.55
2022-08-16T13:38:24.773Z,28.15
2022-08-16T13:40:55.954Z,28.63
2022-08-16T13:43:27.774Z,28.08
2022-08-16T13:45:57.483Z,28.14
2022-08-16T13:48:26.131Z,28.29
2022-08-16T13:51:04.485Z,28.15
2022-08-16T13:53:32.436Z,28.43
2022-08-16T13:55:59.860Z,28.15
2022-08-16T13:58:36.611Z,28.15
2022-08-16T14:01:09.920Z,27.94
2022-08-16T14:03:38.519Z,27.69
2022-08-16T14:06:11.144Z,27.99
2022-08-16T14:08:42.396Z,28.04
2022-08-16T14:11:12.371Z,28.08
2022-08-16T14:13:40.843Z,28.35
2022-08-16T14:16:12.721Z,28.46
2022-08-16T14:18:53.038Z,28.70
2022-08-16T14:21:23.751Z,28.67
2022-08-16T14:23:52.297Z,28.87
2022-08-16T14:26:21.338Z,28.95
2022-08-16T14:28:50.693Z,28.82
2022-08-16T14:31:18.937Z,28.64
2022-08-16T14:33:46.348Z,28.85
2022-08-16T14:36:18.495Z,29.08
2022-08-16T14:38:46.206Z,28.94
2022-08-16T14:41:14.178Z,28.76
2022-08-16T14:43:41.467Z,29.22
2022-08-16T14:46:08.731Z,29.42
2022-08-16T14:48:36.822Z,29.45
2022-08-16T14:51:04.136Z,29.13
2022-08-16T14:53:33.910Z,29.31
2022-08-16T14:56:01.380Z,29.44
2022-08-16T14:58:36.757Z,29.47
2022-08-16T15:01:06.461Z,28.80
2022-08-16T15:03:37.804Z,28.80
2022-08-16T15:06:05.568Z,28.99
2022-08-16T15:08:36.245Z,29.06
2022-08-16T15:11:06.182Z,29.20
2022-08-16T15:13:35.699Z,29.27
2022-08-16T15:16:04.036Z,29.37
2022-08-16T15:18:33.591Z,29.71
2022-08-16T15:21:02.389Z,29.48
2022-08-16T15:23:33.973Z,29.12
2022-08-16T15:26:03.978Z,29.22
2022-08-16T15:28:32.704Z,29.49
2022-08-16T15:31:03.431Z,29.27
2022-08-16T15:33:34.754Z,29.30
2022-08-16T15:36:03.481Z,29.06
2022-08-16T15:39:02.104Z,29.18
2022-08-16T15:41:42.699Z,29.09
2022-08-16T15:44:13.448Z,28.48
2022-08-16T15:46:54.769Z,26.07
2022-08-16T15:49:34.837Z,23.29
2022-08-16T15:52:15.861Z,21.60
2022-08-16T15:54:52.774Z,21.23
2022-08-16T15:57:26.592Z,21.63
2022-08-16T15:59:56.284Z,21.43
2022-08-16T16:02:38.954Z,21.15
2022-08-16T16:05:09.580Z,21.05
2022-08-16T16:07:55.771Z,20.86
2022-08-16T16:10:26.329Z,20.94
2022-08-16T16:13:00.321Z,21.30
2022-08-16T16:15:31.626Z,21.53
2022-08-16T16:17:59.195Z,21.64
2022-08-16T16:20:32.764Z,21.74
2022-08-16T16:23:10.068Z,21.82
2022-08-16T16:25:43.889Z,22.03
2022-08-16T16:29:06.165Z,22.03
2022-08-16T16:31:04.817Z,22.09
2022-08-16T16:33:34.066Z,22.48
2022-08-16T16:36:03.939Z,22.45
2022-08-16T16:38:34.894Z,22.23
2022-08-16T16:41:08.888Z,21.87
2022-08-16T16:43:40.764Z,22.16
2022-08-16T16:46:32.777Z,22.18
2022-08-16T16:48:56.097Z,21.98
2022-08-16T16:51:23.305Z,21.53
2022-08-16T16:53:56.089Z,21.43
2022-08-16T16:56:31.335Z,21.60
2022-08-16T16:59:06.644Z,21.58
2022-08-16T17:01:56.817Z,21.40
2022-08-16T17:04:31.578Z,21.08
2022-08-16T17:07:01.119Z,21.29
2022-08-16T17:09:29.409Z,21.29
2022-08-16T17:11:58.233Z,21.29
2022-08-16T17:14:33.538Z,21.41
2022-08-16T17:17:06.114Z,21.11
2022-08-16T17:19:34.037Z,20.91
2022-08-16T17:22:14.015Z,20.84
2022-08-16T17:24:50.602Z,20.99
2022-08-16T17:27:32.642Z,21.12
2022-08-16T17:30:19.366Z,21.19
2022-08-16T17:32:54.753Z,21.25
2022-08-16T17:35:33.941Z,20.78
2022-08-16T17:38:08.626Z,20.82
2022-08-16T17:40:46.122Z,21.01
2022-08-16T17:43:24.705Z,21.21
2022-08-16T17:45:52.076Z,21.24
2022-08-16T17:48:19.431Z,21.42
2022-08-16T17:50:46.777Z,21.27
2022-08-16T17:53:15.557Z,21.12
2022-08-16T17:55:47.355Z,21.15
2022-08-16T17:58:22.638Z,21.57
2022-08-16T18:00:53.165Z,21.73
2022-08-16T18:04:02.648Z,21.80
2022-08-16T18:06:17.124Z,21.75
2022-08-16T18:08:48.911Z,21.87
2022-08-16T18:11:18.903Z,22.06
2022-08-16T18:13:53.838Z,21.99
2022-08-16T18:16:21.193Z,22.27
2022-08-16T18:18:48.573Z,22.67
2022-08-16T18:21:34.489Z,22.61
2022-08-16T18:24:01.816Z,22.59
2022-08-16T18:26:29.231Z,22.82
2022-08-16T18:28:56.514Z,22.91
2022-08-16T18:31:25.110Z,23.06
2022-08-16T18:33:55.711Z,23.05
2022-08-16T18:36:25.239Z,22.87
2022-08-16T18:38:53.691Z,22.94
2022-08-16T18:41:23.280Z,22.88
2022-08-16T18:44:24.292Z,22.86
2022-08-16T18:46:40.402Z,22.83
2022-08-16T18:49:07.791Z,22.95
2022-08-16T18:51:36.884Z,22.80
2022-08-16T18:54:05.044Z,22.89
2022-08-16T18:56:55.610Z,22.89
2022-08-16T18:59:19.804Z,22.90
2022-08-16T19:01:47.519Z,22.96
2022-08-16T19:04:57.437Z,22.98
2022-08-16T19:07:02.641Z,23.18
2022-08-16T19:09:30.170Z,23.09
2022-08-16T19:11:57.577Z,22.94
2022-08-16T19:14:29.971Z,22.88
2022-08-16T19:16:57.432Z,22.71
2022-08-16T19:19:31.566Z,22.84
2022-08-16T19:21:59.027Z,22.92
2022-08-16T19:24:29.285Z,22.97
2022-08-16T19:26:57.188Z,22.82
2022-08-16T19:29:24.924Z,23.00
2022-08-16T19:31:52.360Z,23.02
2022-08-16T19:34:19.585Z,23.28
2022-08-16T19:36:47.524Z,23.00
2022-08-16T19:39:17.171Z,22.93
2022-08-16T19:41:53.557Z,23.09
2022-08-16T19:44:22.383Z,23.07
2022-08-16T19:46:50.468Z,23.19
2022-08-16T19:49:18.064Z,23.25
2022-08-16T19:51:47.071Z,23.11
2022-08-16T19:54:14.902Z,22.93
2022-08-16T19:56:42.341Z,22.96
2022-08-16T19:59:19.297Z,22.62
2022-08-16T20:01:50.060Z,22.58
2022-08-16T20:04:17.313Z,22.65
2022-08-16T20:06:44.757Z,22.41
2022-08-16T20:09:14.473Z,22.32
2022-08-16T20:11:47.044Z,22.54
2022-08-16T20:14:23.985Z,22.46
2022-08-16T20:16:55.662Z,22.47
2022-08-16T20:19:23.318Z,22.15
2022-08-16T20:21:50.747Z,22.17
2022-08-16T20:24:35.664Z,22.06
2022-08-16T20:27:06.451Z,22.15
2022-08-16T20:29:34.111Z,21.91
2022-08-16T20:32:02.334Z,21.83
2022-08-16T20:34:29.658Z,21.85
2022-08-16T20:36:57.042Z,21.80
2022-08-16T20:39:24.574Z,22.23
2022-08-16T20:41:51.909Z,22.05
2022-08-16T20:44:23.017Z,21.73
2022-08-16T20:49:19.636Z,21.90
2022-08-16T20:51:50.954Z,21.87
2022-08-16T20:54:19.868Z,22.14
2022-08-16T20:56:47.054Z,22.00
2022-08-16T20:59:14.576Z,22.07
2022-08-16T21:01:47.004Z,22.40
2022-08-16T21:04:24.508Z,22.28
2022-08-16T21:06:54.432Z,22.15
2022-08-16T21:09:27.083Z,22.11
2022-08-16T21:11:56.185Z,21.96
2022-08-16T21:14:23.940Z,22.21
2022-08-16T21:16:51.367Z,22.16
2022-08-16T21:19:21.559Z,22.05
2022-08-16T21:21:49.359Z,22.16
2022-08-16T21:24:17.103Z,22.13
2022-08-16T21:26:55.605Z,22.27
2022-08-16T21:29:31.661Z,21.96
2022-08-16T21:32:18.397Z,21.68
2022-08-16T21:34:45.684Z,21.75
2022-08-16T21:37:15.551Z,21.88
2022-08-16T21:39:43.319Z,21.96
2022-08-16T21:42:13.357Z,21.80
2022-08-16T21:44:40.863Z,21.91
2022-08-16T21:47:08.370Z,22.07
2022-08-16T21:49:36.890Z,22.07
2022-08-16T21:52:05.771Z,22.22
2022-08-16T21:54:33.235Z,22.25
2022-08-16T21:57:00.537Z,22.14
2022-08-16T21:59:27.833Z,22.23
2022-08-16T22:01:55.250Z,21.96
2022-08-16T22:04:37.786Z,21.85
2022-08-16T22:07:07.038Z,22.07
2022-08-16T22:09:34.366Z,21.98
2022-08-16T22:12:01.741Z,22.06
2022-08-16T22:14:29.028Z,22.17
2022-08-16T22:16:56.577Z,22.10
2022-08-16T22:19:24.042Z,21.82
2022-08-16T22:21:51.649Z,21.88
2022-08-16T22:24:18.864Z,21.92
2022-08-16T22:26:46.173Z,21.88
2022-08-16T22:29:14.986Z,22.11
2022-08-16T22:31:43.497Z,22.07
2022-08-16T22:34:11.219Z,22.06
2022-08-16T22:36:38.937Z,21.91
2022-08-16T22:39:10.632Z,21.77
2022-08-16T22:41:39.563Z,21.75
2022-08-16T22:44:07.733Z,21.79
2022-08-16T22:46:36.621Z,21.89
2022-08-16T22:49:05.939Z,21.81
2022-08-16T22:51:33.738Z,21.54
2022-08-16T22:54:01.306Z,21.83
2022-08-16T22:56:48.746Z,21.94
2022-08-16T22:59:15.951Z,21.82
2022-08-16T23:01:43.989Z,21.73
2022-08-16T23:04:11.380Z,21.76
2022-08-16T23:06:38.781Z,21.78
2022-08-16T23:09:06.049Z,22.03
2022-08-16T23:11:33.393Z,22.06
2022-08-16T23:14:00.647Z,21.87
2022-08-16T23:16:33.009Z,21.82
2022-08-16T23:19:08.404Z,21.90
2022-08-16T23:21:37.697Z,21.98
2022-08-16T23:24:06.068Z,21.89
2022-08-16T23:26:45.037Z,22.00
2022-08-16T23:29:23.771Z,21.89
2022-08-16T23:31:58.763Z,21.82
2022-08-16T23:34:28.118Z,22.04
2022-08-16T23:36:55.668Z,21.75
2022-08-16T23:39:23.905Z,21.83
2022-08-16T23:41:52.408Z,21.85
2022-08-16T23:44:56.254Z,21.95
2022-08-16T23:47:07.211Z,22.02
2022-08-16T23:49:58.988Z,21.68
2022-08-16T23:52:39.398Z,21.58
2022-08-16T23:55:09.302Z,21.32
2022-08-16T23:57:37.474Z,21.55
